createdAt,value
2018-11-12T00:00:58.342Z,6.79
2018-11-12T00:03:27.932Z,6.78
2018-11-12T00:05:57.506Z,6.76
2018-11-12T00:08:27.008Z,6.75
2018-11-12T00:10:56.683Z,6.73
2018-11-12T00:13:26.177Z,6.70
2018-11-12T00:15:55.836Z,6.71
2018-11-12T00:18:25.414Z,6.71
2018-11-12T00:20:54.924Z,6.69
2018-11-12T00:23:24.467Z,6.68
2018-11-12T00:25:53.986Z,6.68
2018-11-12T00:28:23.527Z,6.65
2018-11-12T00:30:53.044Z,6.59
2018-11-12T00:33:22.584Z,6.58
2018-11-12T00:35:52.154Z,6.52
2018-11-12T00:38:21.701Z,6.46
2018-11-12T00:40:51.239Z,6.44
2018-11-12T00:43:20.825Z,6.42
2018-11-12T00:45:50.356Z,6.42
2018-11-12T00:48:19.860Z,6.43
2018-11-12T00:50:49.454Z,6.45
2018-11-12T00:53:19.006Z,6.45
2018-11-12T00:55:48.589Z,6.46
2018-11-12T00:58:18.147Z,6.46
2018-11-12T01:00:47.664Z,6.43
2018-11-12T01:03:17.204Z,6.43
2018-11-12T01:05:46.766Z,6.43
2018-11-12T01:08:16.292Z,6.44
2018-11-12T01:10:45.870Z,6.46
2018-11-12T01:13:15.415Z,6.47
2018-11-12T01:15:44.936Z,6.49
2018-11-12T01:18:14.488Z,6.47
2018-11-12T01:20:43.992Z,6.47
2018-11-12T01:23:13.544Z,6.45
2018-11-12T01:25:43.069Z,6.42
2018-11-12T01:28:12.596Z,5.67
2018-11-12T01:30:42.101Z,6.40
2018-11-12T01:33:11.662Z,6.40
2018-11-12T01:35:41.224Z,6.37
2018-11-12T01:38:10.719Z,6.36
2018-11-12T01:40:40.287Z,6.34
2018-11-12T01:43:09.842Z,6.33
2018-11-12T01:45:39.606Z,6.28
2018-11-12T01:48:09.148Z,6.19
2018-11-12T01:50:38.759Z,6.13
2018-11-12T01:53:08.355Z,6.08
2018-11-12T01:55:37.894Z,6.05
2018-11-12T01:58:07.427Z,6.04
2018-11-12T02:00:36.980Z,6.03
2018-11-12T02:03:06.506Z,6.02
2018-11-12T02:05:36.060Z,6.01
2018-11-12T02:08:05.783Z,6.00
2018-11-12T02:10:35.322Z,6.00
2018-11-12T02:13:04.961Z,5.98
2018-11-12T02:15:34.523Z,5.99
2018-11-12T02:18:04.069Z,5.97
2018-11-12T02:20:33.623Z,5.98
2018-11-12T02:23:03.106Z,5.97
2018-11-12T02:25:32.636Z,5.95
2018-11-12T02:28:02.162Z,5.95
2018-11-12T02:30:36.833Z,5.97
2018-11-12T02:33:06.447Z,5.98
2018-11-12T02:35:35.996Z,5.96
2018-11-12T02:38:05.614Z,6.04
2018-11-12T02:40:35.176Z,6.07
2018-11-12T02:43:04.712Z,6.08
2018-11-12T02:45:34.251Z,6.07
2018-11-12T02:48:03.873Z,6.09
2018-11-12T02:50:33.402Z,6.07
2018-11-12T02:53:02.951Z,6.06
2018-11-12T02:55:32.521Z,6.09
2018-11-12T02:58:02.015Z,6.12
2018-11-12T03:00:31.552Z,6.13
2018-11-12T03:03:01.043Z,6.14
2018-11-12T03:05:30.613Z,6.09
2018-11-12T03:08:00.143Z,6.07
2018-11-12T03:10:29.725Z,6.00
2018-11-12T03:12:59.300Z,5.92
2018-11-12T03:15:28.842Z,5.85
2018-11-12T03:17:58.398Z,5.78
2018-11-12T03:20:27.909Z,5.75
2018-11-12T03:22:57.467Z,5.69
2018-11-12T03:25:27.016Z,5.62
2018-11-12T03:27:56.588Z,5.60
2018-11-12T03:30:26.107Z,5.56
2018-11-12T03:32:55.644Z,5.55
2018-11-12T03:35:25.179Z,5.55
2018-11-12T03:37:54.765Z,5.54
2018-11-12T03:40:24.828Z,5.53
2018-11-12T03:42:54.360Z,5.52
2018-11-12T03:45:25.051Z,5.53
2018-11-12T03:47:54.632Z,5.57
2018-11-12T03:50:25.191Z,5.59
2018-11-12T03:52:54.739Z,5.60
2018-11-12T03:55:24.534Z,5.62
2018-11-12T03:57:54.074Z,5.63
2018-11-12T04:00:30.228Z,5.70
2018-11-12T04:02:59.744Z,5.75
2018-11-12T04:05:29.312Z,5.70
2018-11-12T04:07:58.842Z,5.74
2018-11-12T04:10:28.424Z,5.77
2018-11-12T04:12:57.979Z,5.77
2018-11-12T04:15:27.606Z,5.76
2018-11-12T04:17:57.198Z,5.74
2018-11-12T04:20:26.726Z,5.70
2018-11-12T04:23:05.216Z,5.68
2018-11-12T04:25:36.219Z,5.64
2018-11-12T04:28:05.905Z,5.62
2018-11-12T04:30:35.564Z,5.60
2018-11-12T04:33:05.356Z,5.57
2018-11-12T04:35:34.940Z,5.54
2018-11-12T04:38:04.638Z,5.50
2018-11-12T04:40:34.182Z,5.44
2018-11-12T04:43:03.695Z,5.44
2018-11-12T04:45:33.415Z,5.43
2018-11-12T04:48:02.904Z,5.39
2018-11-12T04:50:32.451Z,5.38
2018-11-12T04:53:02.038Z,5.35
2018-11-12T04:55:31.615Z,5.24
2018-11-12T04:58:01.137Z,5.28
2018-11-12T05:00:30.669Z,5.25
2018-11-12T05:03:00.203Z,5.28
2018-11-12T05:05:29.807Z,5.29
2018-11-12T05:07:59.394Z,5.31
2018-11-12T05:10:28.900Z,5.32
2018-11-12T05:12:58.436Z,5.32
2018-11-12T05:15:27.980Z,5.29
2018-11-12T05:17:57.520Z,5.25
2018-11-12T05:20:29.212Z,5.19
2018-11-12T05:22:58.974Z,5.18
2018-11-12T05:25:28.540Z,5.17
2018-11-12T05:27:58.088Z,5.19
2018-11-12T05:30:28.733Z,5.16
2018-11-12T05:32:58.867Z,5.19
2018-11-12T05:35:29.559Z,5.21
2018-11-12T05:37:59.169Z,5.33
2018-11-12T05:40:29.809Z,5.38
2018-11-12T05:42:59.539Z,5.40
2018-11-12T05:45:29.596Z,5.46
2018-11-12T05:47:59.167Z,5.50
2018-11-12T05:50:30.581Z,5.58
2018-11-12T05:53:01.471Z,5.57
2018-11-12T05:55:32.129Z,5.62
2018-11-12T05:58:02.007Z,5.70
2018-11-12T06:00:32.972Z,5.67
2018-11-12T06:03:02.650Z,5.82
2018-11-12T06:05:34.971Z,5.90
2018-11-12T06:08:04.681Z,6.02
2018-11-12T06:10:34.888Z,6.15
2018-11-12T06:13:04.558Z,6.17
2018-11-12T06:15:34.224Z,6.34
2018-11-12T06:18:03.834Z,6.45
2018-11-12T06:20:33.977Z,6.54
2018-11-12T06:23:05.019Z,6.64
2018-11-12T06:25:35.791Z,6.75
2018-11-12T06:28:05.534Z,6.86
2018-11-12T06:30:36.443Z,7.04
2018-11-12T06:33:06.030Z,7.20
2018-11-12T06:35:35.619Z,7.30
2018-11-12T06:38:05.234Z,7.39
2018-11-12T06:40:34.891Z,7.56
2018-11-12T06:43:04.484Z,7.71
2018-11-12T06:45:34.110Z,7.80
2018-11-12T06:48:03.677Z,7.89
2018-11-12T06:50:34.008Z,8.01
2018-11-12T06:53:04.163Z,8.11
2018-11-12T06:55:33.887Z,8.24
2018-11-12T06:58:03.508Z,8.31
2018-11-12T07:00:34.302Z,8.40
2018-11-12T07:03:04.008Z,8.51
2018-11-12T07:05:33.984Z,8.59
2018-11-12T07:08:03.643Z,8.64
2018-11-12T07:10:33.171Z,8.72
2018-11-12T07:13:02.784Z,8.79
2018-11-12T07:15:32.501Z,8.84
2018-11-12T07:18:02.209Z,8.92
2018-11-12T07:20:31.831Z,8.99
2018-11-12T07:23:01.451Z,9.07
2018-11-12T07:25:31.683Z,9.14
2018-11-12T07:28:01.244Z,9.19
2018-11-12T07:30:30.844Z,9.27
2018-11-12T07:33:00.670Z,9.33
2018-11-12T07:35:30.367Z,9.41
2018-11-12T07:37:59.890Z,9.38
2018-11-12T07:40:29.540Z,9.46
2018-11-12T07:42:59.173Z,9.58
2018-11-12T07:45:29.686Z,9.66
2018-11-12T07:47:59.834Z,9.75
2018-11-12T07:50:30.582Z,9.15
2018-11-12T07:53:00.323Z,9.96
2018-11-12T07:55:30.098Z,10.07
2018-11-12T07:58:00.131Z,10.18
2018-11-12T08:00:32.033Z,10.29
2018-11-12T08:03:08.966Z,10.38
2018-11-12T08:05:39.916Z,10.49
2018-11-12T08:08:10.004Z,10.60
2018-11-12T08:10:39.581Z,10.71
2018-11-12T08:13:09.140Z,10.77
2018-11-12T08:15:38.781Z,10.89
2018-11-12T08:18:08.319Z,10.97
2018-11-12T08:20:37.979Z,11.11
2018-11-12T08:23:07.567Z,11.20
2018-11-12T08:25:37.208Z,11.28
2018-11-12T08:28:06.798Z,11.42
2018-11-12T08:30:36.536Z,11.54
2018-11-12T08:33:06.474Z,11.64
2018-11-12T08:35:36.068Z,11.72
2018-11-12T08:38:06.254Z,11.82
2018-11-12T08:40:35.839Z,11.92
2018-11-12T08:43:05.578Z,12.04
2018-11-12T08:45:35.232Z,12.16
2018-11-12T08:48:04.877Z,12.27
2018-11-12T08:50:34.449Z,12.38
2018-11-12T08:53:04.166Z,12.45
2018-11-12T08:55:33.806Z,12.56
2018-11-12T08:58:04.176Z,12.64
2018-11-12T09:00:33.856Z,12.73
2018-11-12T09:03:03.450Z,12.79
2018-11-12T09:05:33.028Z,12.87
2018-11-12T09:08:03.407Z,12.95
2018-11-12T09:10:34.379Z,13.03
2018-11-12T09:13:04.150Z,13.12
2018-11-12T09:15:33.726Z,13.20
2018-11-12T09:18:03.692Z,13.28
2018-11-12T09:20:34.043Z,13.37
2018-11-12T09:23:03.604Z,13.45
2018-11-12T09:25:33.253Z,13.54
2018-11-12T09:28:02.869Z,13.53
2018-11-12T09:30:32.460Z,13.61
2018-11-12T09:33:02.015Z,13.68
2018-11-12T09:35:32.500Z,13.73
2018-11-12T09:38:03.154Z,13.79
2018-11-12T09:40:35.733Z,13.86
2018-11-12T09:43:05.534Z,13.89
2018-11-12T09:45:35.388Z,13.95
2018-11-12T09:48:04.962Z,14.01
2018-11-12T09:50:34.547Z,14.04
2018-11-12T09:53:04.484Z,14.08
2018-11-12T09:55:34.485Z,14.14
2018-11-12T09:58:06.526Z,14.21
2018-11-12T10:00:36.637Z,14.26
2018-11-12T10:03:07.084Z,14.30
2018-11-12T10:05:37.074Z,14.35
2018-11-12T10:08:09.150Z,14.26
2018-11-12T10:10:45.498Z,14.33
2018-11-12T10:13:16.990Z,14.39
2018-11-12T10:15:47.076Z,14.42
2018-11-12T10:18:13.965Z,14.47
2018-11-12T10:20:43.502Z,14.53
2018-11-12T10:23:13.176Z,14.60
2018-11-12T10:25:42.793Z,14.66
2018-11-12T10:28:12.347Z,14.67
2018-11-12T10:30:41.861Z,14.70
2018-11-12T10:33:11.491Z,14.73
2018-11-12T10:35:41.036Z,14.80
2018-11-12T10:38:10.957Z,14.83
2018-11-12T10:40:40.552Z,14.89
2018-11-12T10:43:10.156Z,14.93
2018-11-12T10:45:39.833Z,14.98
2018-11-12T10:48:09.413Z,15.00
2018-11-12T10:50:39.001Z,14.98
2018-11-12T10:53:08.598Z,15.01
2018-11-12T10:55:38.343Z,15.05
2018-11-12T10:58:07.890Z,15.08
2018-11-12T11:00:42.637Z,15.14
2018-11-12T11:05:24.084Z,14.48
2018-11-12T11:07:54.368Z,15.19
2018-11-12T11:10:25.355Z,15.20
2018-11-12T11:12:55.587Z,15.22
2018-11-12T11:15:25.276Z,15.22
2018-11-12T11:17:54.944Z,15.27
2018-11-12T11:20:24.523Z,15.30
2018-11-12T11:22:54.102Z,15.32
2018-11-12T11:25:23.736Z,15.33
2018-11-12T11:27:53.302Z,15.37
2018-11-12T11:30:22.927Z,14.72
2018-11-12T11:32:52.684Z,15.41
2018-11-12T11:35:22.595Z,15.37
2018-11-12T11:37:52.306Z,15.40
2018-11-12T11:40:23.205Z,15.46
2018-11-12T11:42:52.716Z,15.48
2018-11-12T11:45:22.606Z,15.49
2018-11-12T11:47:53.002Z,15.50
2018-11-12T11:50:23.816Z,15.53
2018-11-12T11:52:53.409Z,15.53
2018-11-12T11:55:24.064Z,15.55
2018-11-12T11:57:54.755Z,15.60
2018-11-12T12:00:27.403Z,15.61
2018-11-12T12:02:58.098Z,15.62
2018-11-12T12:05:28.292Z,15.67
2018-11-12T12:07:58.498Z,15.67
2018-11-12T12:10:28.271Z,15.66
2018-11-12T12:12:57.973Z,15.71
2018-11-12T12:15:27.660Z,15.74
2018-11-12T12:19:26.441Z,15.76
2018-11-12T12:21:56.132Z,15.83
2018-11-12T12:24:25.727Z,15.87
2018-11-12T12:26:55.462Z,15.88
2018-11-12T12:29:24.960Z,15.88
2018-11-12T12:31:54.582Z,15.89
2018-11-12T12:34:24.199Z,15.92
2018-11-12T12:36:53.991Z,15.95
2018-11-12T12:39:23.448Z,15.97
2018-11-12T12:41:53.069Z,15.97
2018-11-12T12:44:22.725Z,15.99
2018-11-12T12:46:52.229Z,15.98
2018-11-12T12:49:21.896Z,16.00
2018-11-12T12:51:51.660Z,16.03
2018-11-12T12:54:21.261Z,16.03
2018-11-12T12:56:50.818Z,16.06
2018-11-12T12:59:20.395Z,16.08
2018-11-12T13:01:50.132Z,16.10
2018-11-12T13:04:19.646Z,15.53
2018-11-12T13:06:49.191Z,16.13
2018-11-12T13:09:18.703Z,16.13
2018-11-12T13:11:48.520Z,16.14
2018-11-12T13:14:18.083Z,16.14
2018-11-12T13:16:47.658Z,16.15
2018-11-12T13:19:17.166Z,16.14
2018-11-12T13:21:46.752Z,16.13
2018-11-12T13:24:16.332Z,16.01
2018-11-12T13:26:45.917Z,16.14
2018-11-12T13:29:15.442Z,16.12
2018-11-12T13:31:44.996Z,16.09
2018-11-12T13:34:14.536Z,16.11
2018-11-12T13:36:44.112Z,16.11
2018-11-12T13:39:15.403Z,16.11
2018-11-12T13:41:45.812Z,16.12
2018-11-12T13:44:15.424Z,16.11
2018-11-12T13:46:50.155Z,16.10
2018-11-12T13:49:19.699Z,16.10
2018-11-12T13:51:49.271Z,16.09
2018-11-12T13:54:18.876Z,16.07
2018-11-12T13:56:48.488Z,16.03
2018-11-12T13:59:17.992Z,16.04
2018-11-12T14:01:47.659Z,16.05
2018-11-12T14:04:17.213Z,16.00
2018-11-12T14:06:46.794Z,15.99
2018-11-12T14:09:16.448Z,16.00
2018-11-12T14:11:45.991Z,15.98
2018-11-12T14:14:15.599Z,15.40
2018-11-12T14:16:45.311Z,15.92
2018-11-12T14:19:14.896Z,15.22
2018-11-12T14:21:44.687Z,15.86
2018-11-12T14:24:14.079Z,15.81
2018-11-12T14:26:43.665Z,15.80
2018-11-12T14:29:13.258Z,15.75
2018-11-12T14:31:42.855Z,15.71
2018-11-12T14:34:12.486Z,15.68
2018-11-12T14:36:42.029Z,15.64
2018-11-12T14:39:11.883Z,15.59
2018-11-12T14:41:41.587Z,15.55
2018-11-12T14:44:11.165Z,15.51
2018-11-12T14:46:40.753Z,15.46
2018-11-12T14:49:10.320Z,15.40
2018-11-12T14:51:39.903Z,15.37
2018-11-12T14:54:09.462Z,15.32
2018-11-12T14:56:39.074Z,14.42
2018-11-12T14:59:08.693Z,15.19
2018-11-12T15:01:38.303Z,15.09
2018-11-12T15:04:07.908Z,14.99
2018-11-12T15:06:37.502Z,14.91
2018-11-12T15:09:09.884Z,14.81
2018-11-12T15:11:39.643Z,14.71
2018-11-12T15:14:10.702Z,14.62
2018-11-12T15:16:40.815Z,14.53
2018-11-12T15:19:10.511Z,14.43
2018-11-12T15:21:40.193Z,14.34
2018-11-12T15:24:09.744Z,14.26
2018-11-12T15:26:39.524Z,14.16
2018-11-12T15:29:09.144Z,14.09
2018-11-12T15:31:38.754Z,14.04
2018-11-12T15:34:08.343Z,13.99
2018-11-12T15:36:38.033Z,13.93
2018-11-12T15:39:10.101Z,13.85
2018-11-12T15:41:39.765Z,13.76
2018-11-12T15:44:09.295Z,13.66
2018-11-12T15:46:38.893Z,13.58
2018-11-12T15:49:08.413Z,13.48
2018-11-12T15:51:37.951Z,13.38
2018-11-12T15:54:07.537Z,13.27
2018-11-12T15:56:37.160Z,13.16
2018-11-12T15:59:07.043Z,13.07
2018-11-12T16:01:36.556Z,12.98
2018-11-12T16:04:06.298Z,12.90
2018-11-12T16:06:35.884Z,12.80
2018-11-12T16:09:09.244Z,12.73
2018-11-12T16:11:38.784Z,12.65
2018-11-12T16:14:08.774Z,12.58
2018-11-12T16:16:38.452Z,12.54
2018-11-12T16:19:09.013Z,12.51
2018-11-12T16:21:38.541Z,12.43
2018-11-12T16:24:08.300Z,12.37
2018-11-12T16:26:38.252Z,12.31
2018-11-12T16:29:07.840Z,12.27
2018-11-12T16:31:37.472Z,12.21
2018-11-12T16:34:07.032Z,12.15
2018-11-12T16:36:36.596Z,12.09
2018-11-12T16:39:09.233Z,12.02
2018-11-12T16:41:39.508Z,11.95
2018-11-12T16:44:09.534Z,11.89
2018-11-12T16:46:39.172Z,11.81
2018-11-12T16:49:08.781Z,11.77
2018-11-12T16:51:38.332Z,11.71
2018-11-12T16:54:07.897Z,11.64
2018-11-12T16:56:37.590Z,11.60
2018-11-12T16:59:07.175Z,11.53
2018-11-12T17:01:36.779Z,11.46
2018-11-12T17:04:06.548Z,11.42
2018-11-12T17:06:36.083Z,11.38
2018-11-12T17:09:09.912Z,11.32
2018-11-12T17:11:39.496Z,11.26
2018-11-12T17:14:09.566Z,11.21
2018-11-12T17:16:39.471Z,11.14
2018-11-12T17:19:09.147Z,11.09
2018-11-12T17:21:38.755Z,11.06
2018-11-12T17:24:08.264Z,11.01
2018-11-12T17:26:37.877Z,10.97
2018-11-12T17:29:07.910Z,10.92
2018-11-12T17:31:37.492Z,10.86
2018-11-12T17:34:07.091Z,10.82
2018-11-12T17:36:36.717Z,10.79
2018-11-12T17:39:07.664Z,10.77
2018-11-12T17:41:37.214Z,10.74
2018-11-12T17:44:07.514Z,10.71
2018-11-12T17:46:37.192Z,10.65
2018-11-12T17:49:06.904Z,10.63
2018-11-12T17:51:36.624Z,10.59
2018-11-12T17:54:06.155Z,10.54
2018-11-12T17:56:35.763Z,10.51
2018-11-12T17:59:05.576Z,10.50
2018-11-12T18:01:35.453Z,10.47
2018-11-12T18:04:05.041Z,10.45
2018-11-12T18:06:34.777Z,10.42
2018-11-12T18:09:05.457Z,10.43
2018-11-12T18:11:35.047Z,10.45
2018-11-12T18:14:04.737Z,10.47
2018-11-12T18:16:34.279Z,10.49
2018-11-12T18:19:03.876Z,10.49
2018-11-12T18:21:33.406Z,10.48
2018-11-12T18:24:03.007Z,10.45
2018-11-12T18:26:32.537Z,10.44
2018-11-12T18:29:02.074Z,10.41
2018-11-12T18:31:32.073Z,10.37
2018-11-12T18:34:01.593Z,10.34
2018-11-12T18:36:31.150Z,10.30
2018-11-12T18:39:00.709Z,10.27
2018-11-12T18:41:30.300Z,9.40
2018-11-12T18:43:59.883Z,10.21
2018-11-12T18:46:29.416Z,10.16
2018-11-12T18:48:59.216Z,10.12
2018-11-12T18:51:28.791Z,10.08
2018-11-12T18:53:58.374Z,10.04
2018-11-12T18:56:27.975Z,10.01
2018-11-12T18:58:57.527Z,10.01
2018-11-12T19:01:27.087Z,9.94
2018-11-12T19:03:56.646Z,9.93
2018-11-12T19:06:26.162Z,9.97
2018-11-12T19:08:55.753Z,9.94
2018-11-12T19:11:25.400Z,9.97
2018-11-12T19:13:54.974Z,10.02
2018-11-12T19:16:24.535Z,10.04
2018-11-12T19:18:54.071Z,10.05
2018-11-12T19:21:23.607Z,10.04
2018-11-12T19:23:53.128Z,10.02
2018-11-12T19:26:22.712Z,9.99
2018-11-12T19:28:52.412Z,9.94
2018-11-12T19:31:21.984Z,9.89
2018-11-12T19:33:51.534Z,9.84
2018-11-12T19:36:21.111Z,9.81
2018-11-12T19:38:50.695Z,9.75
2018-11-12T19:41:20.254Z,9.70
2018-11-12T19:43:49.796Z,9.66
2018-11-12T19:46:19.299Z,9.62
2018-11-12T19:48:48.898Z,9.57
2018-11-12T19:51:18.495Z,9.54
2018-11-12T19:53:47.976Z,9.48
2018-11-12T19:56:17.549Z,9.46
2018-11-12T19:58:47.100Z,9.40
2018-11-12T20:01:16.676Z,9.39
2018-11-12T20:03:46.231Z,9.34
2018-11-12T20:06:15.763Z,9.32
2018-11-12T20:08:45.302Z,9.31
2018-11-12T20:11:14.847Z,9.29
2018-11-12T20:13:44.389Z,9.28
2018-11-12T20:16:13.942Z,9.26
2018-11-12T20:18:43.524Z,9.26
2018-11-12T20:21:13.091Z,9.25
2018-11-12T20:23:42.596Z,9.23
2018-11-12T20:26:12.145Z,8.65
2018-11-12T20:28:41.652Z,9.21
2018-11-12T20:31:11.196Z,9.22
2018-11-12T20:33:40.727Z,9.23
2018-11-12T20:36:10.262Z,9.26
2018-11-12T20:38:39.889Z,9.27
2018-11-12T20:41:09.494Z,9.28
2018-11-12T20:43:39.066Z,9.31
2018-11-12T20:46:08.579Z,9.32
2018-11-12T20:48:38.119Z,9.33
2018-11-12T20:51:07.620Z,9.35
2018-11-12T20:53:37.199Z,9.33
2018-11-12T20:56:07.430Z,9.31
2018-11-12T20:58:37.039Z,9.29
2018-11-12T21:01:06.607Z,9.25
2018-11-12T21:03:36.134Z,9.20
2018-11-12T21:06:06.059Z,9.17
2018-11-12T21:08:35.624Z,9.09
2018-11-12T21:11:05.220Z,9.06
2018-11-12T21:13:34.748Z,9.02
2018-11-12T21:16:04.340Z,8.98
2018-11-12T21:18:33.900Z,8.98
2018-11-12T21:21:03.459Z,8.96
2018-11-12T21:23:33.049Z,8.93
2018-11-12T21:26:02.587Z,8.89
2018-11-12T21:28:32.105Z,8.87
2018-11-12T21:31:01.663Z,8.84
2018-11-12T21:33:31.255Z,8.82
2018-11-12T21:36:00.833Z,8.79
2018-11-12T21:38:30.344Z,8.76
2018-11-12T21:40:59.911Z,8.72
2018-11-12T21:43:29.566Z,8.68
2018-11-12T21:45:59.051Z,7.82
2018-11-12T21:48:28.604Z,8.62
2018-11-12T21:50:58.139Z,8.57
2018-11-12T21:53:27.707Z,8.54
2018-11-12T21:55:57.246Z,8.52
2018-11-12T21:58:26.801Z,8.51
2018-11-12T22:00:56.343Z,8.52
2018-11-12T22:03:25.882Z,8.51
2018-11-12T22:05:55.412Z,8.49
2018-11-12T22:08:25.069Z,8.47
2018-11-12T22:10:54.644Z,8.42
2018-11-12T22:13:24.196Z,8.38
2018-11-12T22:15:53.821Z,8.34
2018-11-12T22:18:23.411Z,8.30
2018-11-12T22:20:52.991Z,8.26
2018-11-12T22:23:22.528Z,8.22
2018-11-12T22:25:52.067Z,8.19
2018-11-12T22:28:21.688Z,8.14
2018-11-12T22:30:51.153Z,8.11
2018-11-12T22:33:20.642Z,8.09
2018-11-12T22:35:50.319Z,8.06
2018-11-12T22:38:19.979Z,8.06
2018-11-12T22:40:49.562Z,8.05
2018-11-12T22:43:19.200Z,8.04
2018-11-12T22:45:48.806Z,8.01
2018-11-12T22:48:18.359Z,7.99
2018-11-12T22:50:47.875Z,7.97
2018-11-12T22:53:17.460Z,7.96
2018-11-12T22:55:46.991Z,7.94
2018-11-12T22:58:16.548Z,7.93
2018-11-12T23:00:46.199Z,7.93
2018-11-12T23:03:15.767Z,7.91
2018-11-12T23:05:45.328Z,7.88
2018-11-12T23:08:14.906Z,7.87
2018-11-12T23:10:44.426Z,7.84
2018-11-12T23:13:14.007Z,7.83
2018-11-12T23:15:43.546Z,7.79
2018-11-12T23:18:13.071Z,7.78
2018-11-12T23:20:42.636Z,7.75
2018-11-12T23:23:12.152Z,7.72
2018-11-12T23:25:41.707Z,7.68
2018-11-12T23:28:11.282Z,7.64
2018-11-12T23:30:40.786Z,7.61
2018-11-12T23:33:10.350Z,7.58
2018-11-12T23:35:39.916Z,7.58
2018-11-12T23:38:09.485Z,7.55
2018-11-12T23:40:39.010Z,7.51
2018-11-12T23:43:08.633Z,7.48
2018-11-12T23:45:38.176Z,7.45
2018-11-12T23:48:07.799Z,7.42
2018-11-12T23:50:37.325Z,7.38
2018-11-12T23:53:06.899Z,7.36
2018-11-12T23:55:36.413Z,7.32
2018-11-12T23:58:06.064Z,7.31
